Mc Carr, Kentucky
Current Conditions -  °F | °C
As of 3:35 AM on Sunday 26 Oct 2014 (Local Time) from KPBX Reporting Station
Clear Clear  
Wind Chill: 58°   Ceiling: Unl
Heat Index: 58°   Visibility: 10mi
Dew Point: 55°   Wind: 8mph
Humidity: 87%   Direction: 270°W
Pressure: 29.95"   Gusts: NA
Location:  37.6155°N, 82.1695°W
Report Text: KPBX 260735Z AUTO 27007KT 10SM CLR 15/13 A2995 RMK AO2 T01470125
Loading
Personal Weather Stations






























Interactive Weather Map
Tropical Storm Tracking
New forecast layout! Learn more

10-Day Weather Forecast

Advertisements
Track Severe Weather on mobile